Time;durP1;ratioP1;P1;durP2;ratioP2;P2;SDS_P1;SDS_P2;PMS_P1;PMS_P2;Temp;Humidity;BMP_temperature;BMP_pressure;BME280_temperature;BME280_humidity;BME280_pressure;Samples;Min_cycle;Max_cycle;Signal;HPM_P1;HPM_P2
2022/07/30 00:00:57;;;;;;;;;;;18.20;99.90;;;;;;4959397;28;20370;-62
2022/07/30 00:03:22;;;;;;;;;;;18.10;99.90;;;;;;4959552;28;19917;-62
2022/07/30 00:05:48;;;;;;;;;;;17.80;99.90;;;;;;4962653;28;19917;-62
2022/07/30 00:08:13;;;;;;;;;;;17.50;99.90;;;;;;4957827;28;19911;-62
2022/07/30 00:10:39;;;;;;;;;;;17.30;99.90;;;;;;4960238;28;20001;-62
2022/07/30 00:13:05;;;;;;;;;;;17.10;99.90;;;;;;4966116;28;19979;-62
2022/07/30 00:15:30;;;;;;;;;;;16.90;99.90;;;;;;4960262;28;19913;-62
2022/07/30 00:17:56;;;;;;;;;;;16.70;99.90;;;;;;4957933;28;19937;-62
2022/07/30 00:20:21;;;;;;;;;;;16.50;99.90;;;;;;4967204;28;19906;-62
2022/07/30 00:22:47;;;;;;;;;;;16.30;99.90;;;;;;4960682;28;19972;-62
2022/07/30 00:25:12;;;;;;;;;;;16.20;99.90;;;;;;4959354;28;19914;-62
2022/07/30 00:27:38;;;;;;;;;;;16.10;99.90;;;;;;4949102;28;19981;-62
2022/07/30 00:30:04;;;;;;;;;;;16.00;99.90;;;;;;4957735;28;20005;-62
2022/07/30 00:32:30;;;;;;;;;;;15.90;99.90;;;;;;4943899;28;19910;-62
2022/07/30 00:34:56;;;;;;;;;;;15.80;99.90;;;;;;4959078;28;20267;-62
2022/07/30 00:37:21;;;;;;;;;;;15.70;99.90;;;;;;4961467;28;19906;-62
2022/07/30 00:39:47;;;;;;;;;;;15.70;99.90;;;;;;4958713;28;19906;-62
2022/07/30 00:42:13;;;;;;;;;;;15.60;99.90;;;;;;4958218;28;19915;-62
2022/07/30 00:44:40;;;;;;;;;;;15.50;99.90;;;;;;4961875;28;19907;-62
2022/07/30 00:47:05;;;;;;;;;;;15.40;99.90;;;;;;4962467;28;19910;-62
2022/07/30 00:49:32;;;;;;;;;;;15.30;99.90;;;;;;4962233;28;19913;-62
2022/07/30 00:51:57;;;;;;;;;;;15.30;99.90;;;;;;4957971;28;19917;-62
2022/07/30 00:54:23;;;;;;;;;;;15.30;99.90;;;;;;4962182;28;19914;-61
2022/07/30 00:56:49;;;;;;;;;;;15.60;99.90;;;;;;4954546;28;19906;-62
2022/07/30 00:59:14;;;;;;;;;;;15.60;99.90;;;;;;4961370;28;20433;-62
2022/07/30 01:01:40;;;;;;;;;;;15.80;99.90;;;;;;4957840;28;20012;-62
2022/07/30 01:04:17;;;;;;;;;;;15.80;99.90;;;;;;4963006;28;20066;-62
2022/07/30 01:06:43;;;;;;;;;;;15.60;99.90;;;;;;4964990;28;19906;-62
2022/07/30 01:09:08;;;;;;;;;;;15.40;99.90;;;;;;4962358;28;19936;-61
2022/07/30 01:11:41;;;;;;;;;;;15.50;99.90;;;;;;4965114;28;19913;-62
2022/07/30 01:14:07;;;;;;;;;;;15.50;99.90;;;;;;4965279;28;19920;-62
2022/07/30 01:16:33;;;;;;;;;;;15.30;99.90;;;;;;4963123;28;19906;-62
2022/07/30 01:21:47;;;;;;;;;;;15.00;99.90;;;;;;4971307;28;19916;-62
2022/07/30 01:24:31;;;;;;;;;;;14.90;99.90;;;;;;4960833;28;19922;-62
2022/07/30 01:26:57;;;;;;;;;;;14.70;99.90;;;;;;4962053;28;19916;-60
2022/07/30 01:29:23;;;;;;;;;;;14.60;99.90;;;;;;4946066;28;19906;-63
2022/07/30 01:31:49;;;;;;;;;;;14.50;99.90;;;;;;4963582;28;19906;-60
2022/07/30 01:34:16;;;;;;;;;;;14.40;99.90;;;;;;4962560;28;19906;-61
2022/07/30 01:36:43;;;;;;;;;;;14.40;99.90;;;;;;4961606;28;19934;-62
2022/07/30 01:39:10;;;;;;;;;;;14.30;99.90;;;;;;4962788;28;19914;-62
2022/07/30 01:41:36;;;;;;;;;;;14.30;99.90;;;;;;4962836;28;20369;-62
2022/07/30 01:44:02;;;;;;;;;;;14.20;99.90;;;;;;4962712;28;19907;-62
2022/07/30 01:46:28;;;;;;;;;;;14.20;99.90;;;;;;4963101;28;19957;-62
2022/07/30 01:48:54;;;;;;;;;;;14.10;99.90;;;;;;4945772;28;19910;-62
2022/07/30 01:51:20;;;;;;;;;;;14.00;99.90;;;;;;4964470;28;19957;-62
2022/07/30 01:53:48;;;;;;;;;;;14.00;99.90;;;;;;4968844;28;20351;-62
2022/07/30 01:56:14;;;;;;;;;;;13.90;99.90;;;;;;4964588;28;19920;-62
2022/07/30 01:58:40;;;;;;;;;;;14.20;99.90;;;;;;4962917;28;19906;-62
2022/07/30 02:01:06;;;;;;;;;;;14.50;99.90;;;;;;4962396;28;19964;-61
2022/07/30 02:03:32;;;;;;;;;;;14.60;99.90;;;;;;4962138;28;20367;-62
2022/07/30 02:06:00;;;;;;;;;;;14.50;99.90;;;;;;4963216;28;20317;-62
2022/07/30 02:09:04;;;;;;;;;;;14.30;99.90;;;;;;4962118;28;19906;-62
2022/07/30 02:14:20;;;;;;;;;;;14.00;99.90;;;;;;4870543;29;19935;-62
2022/07/30 02:16:49;;;;;;;;;;;14.00;99.90;;;;;;4865086;29;20408;-62
2022/07/30 02:19:15;;;;;;;;;;;13.90;99.90;;;;;;4864328;29;19919;-62
2022/07/30 02:21:51;;;;;;;;;;;13.80;99.90;;;;;;4865491;29;19918;-62
2022/07/30 02:24:19;;;;;;;;;;;13.80;99.90;;;;;;4865522;29;19930;-62
2022/07/30 02:26:47;;;;;;;;;;;13.70;99.90;;;;;;4865255;29;20002;-62
2022/07/30 02:29:12;;;;;;;;;;;13.70;99.90;;;;;;4863347;29;20375;-62
2022/07/30 02:31:39;;;;;;;;;;;13.60;99.90;;;;;;4866215;29;19946;-62
2022/07/30 02:34:05;;;;;;;;;;;13.60;99.90;;;;;;4847773;29;19945;-62
2022/07/30 02:36:32;;;;;;;;;;;13.60;99.90;;;;;;4866249;29;19914;-62
2022/07/30 02:38:58;;;;;;;;;;;13.50;99.90;;;;;;4863822;29;19912;-62
2022/07/30 02:41:25;;;;;;;;;;;13.50;99.90;;;;;;4879056;28;19914;-62
2022/07/30 02:43:52;;;;;;;;;;;13.50;99.90;;;;;;4960228;28;19906;-62
2022/07/30 02:46:18;;;;;;;;;;;13.40;99.90;;;;;;4960264;28;19910;-62
2022/07/30 02:48:45;;;;;;;;;;;13.40;99.90;;;;;;4962933;28;19913;-62
2022/07/30 02:51:14;;;;;;;;;;;13.40;99.90;;;;;;4963983;28;19910;-62
2022/07/30 02:53:42;;;;;;;;;;;13.40;99.90;;;;;;4964035;28;19957;-62
2022/07/30 02:56:08;;;;;;;;;;;13.40;99.90;;;;;;4957773;28;19914;-62
2022/07/30 02:58:34;;;;;;;;;;;13.80;99.90;;;;;;4963491;28;19913;-62
2022/07/30 03:01:01;;;;;;;;;;;14.10;99.90;;;;;;4959409;28;19933;-62
2022/07/30 03:03:28;;;;;;;;;;;14.10;99.90;;;;;;4959875;28;19913;-62
2022/07/30 03:05:54;;;;;;;;;;;13.90;99.90;;;;;;4963210;28;19909;-62
2022/07/30 03:08:20;;;;;;;;;;;13.80;99.90;;;;;;4959813;28;19913;-62
2022/07/30 03:10:47;;;;;;;;;;;13.70;99.90;;;;;;4945420;28;19906;-61
2022/07/30 03:13:13;;;;;;;;;;;13.60;99.90;;;;;;4963059;28;19906;-62
2022/07/30 03:15:44;;;;;;;;;;;13.50;99.90;;;;;;4947229;28;20031;-62
2022/07/30 03:18:12;;;;;;;;;;;13.50;99.90;;;;;;4962870;28;19992;-62
2022/07/30 03:20:38;;;;;;;;;;;13.50;99.90;;;;;;4969670;28;19940;-62
2022/07/30 03:23:04;;;;;;;;;;;13.50;99.90;;;;;;4958870;28;19918;-62
2022/07/30 03:25:30;;;;;;;;;;;13.50;99.90;;;;;;4959264;28;19925;-62
2022/07/30 03:27:58;;;;;;;;;;;13.40;99.90;;;;;;4960726;28;19934;-62
2022/07/30 03:30:24;;;;;;;;;;;13.40;99.90;;;;;;4962987;28;20016;-62
2022/07/30 03:32:51;;;;;;;;;;;13.30;99.90;;;;;;4963337;28;20116;-62
2022/07/30 03:35:17;;;;;;;;;;;13.30;99.90;;;;;;4941664;29;19907;-62
2022/07/30 03:37:43;;;;;;;;;;;13.20;99.90;;;;;;4962681;28;19910;-62
2022/07/30 03:40:09;;;;;;;;;;;13.10;99.90;;;;;;4958263;28;20012;-62
2022/07/30 03:42:35;;;;;;;;;;;13.10;99.90;;;;;;4962926;28;20350;-62
2022/07/30 03:45:03;;;;;;;;;;;13.00;99.90;;;;;;4955678;28;19906;-62
2022/07/30 03:47:30;;;;;;;;;;;13.00;99.90;;;;;;4961825;28;19906;-62
2022/07/30 03:49:56;;;;;;;;;;;12.90;99.90;;;;;;4959847;28;19910;-62
2022/07/30 03:52:22;;;;;;;;;;;13.00;99.90;;;;;;4961767;28;19910;-62
2022/07/30 03:54:48;;;;;;;;;;;13.30;99.90;;;;;;4959371;28;19962;-62
2022/07/30 03:57:13;;;;;;;;;;;13.20;99.90;;;;;;4959160;28;19996;-62
2022/07/30 03:59:39;;;;;;;;;;;13.20;99.90;;;;;;4941636;28;19949;-62
2022/07/30 04:02:04;;;;;;;;;;;13.40;99.90;;;;;;4960489;28;20015;-61
2022/07/30 04:04:30;;;;;;;;;;;13.50;99.90;;;;;;4962268;28;20023;-61
2022/07/30 04:06:56;;;;;;;;;;;13.50;99.90;;;;;;4959392;28;19984;-62
2022/07/30 04:09:22;;;;;;;;;;;13.50;99.90;;;;;;4940193;28;19913;-62
2022/07/30 04:11:47;;;;;;;;;;;13.70;99.90;;;;;;4959913;28;19911;-62
2022/07/30 04:14:13;;;;;;;;;;;13.80;99.90;;;;;;4961017;28;19910;-62
2022/07/30 04:16:45;;;;;;;;;;;13.80;99.90;;;;;;4959921;28;20305;-61
2022/07/30 04:19:14;;;;;;;;;;;14.00;99.90;;;;;;4962276;28;20317;-62
2022/07/30 04:21:40;;;;;;;;;;;14.10;99.90;;;;;;4965518;28;19918;-61
2022/07/30 04:24:06;;;;;;;;;;;14.30;99.90;;;;;;4958902;28;19998;-62
2022/07/30 04:26:34;;;;;;;;;;;14.40;99.90;;;;;;4959907;28;19910;-62
2022/07/30 04:29:03;;;;;;;;;;;14.50;99.90;;;;;;4958454;28;20370;-61
2022/07/30 04:31:34;;;;;;;;;;;14.50;99.90;;;;;;4962611;28;19910;-62
2022/07/30 04:34:00;;;;;;;;;;;14.40;99.90;;;;;;4969078;28;19917;-61
2022/07/30 04:36:25;;;;;;;;;;;14.40;99.90;;;;;;4958228;28;19914;-61
2022/07/30 04:38:51;;;;;;;;;;;14.50;99.90;;;;;;4964214;28;20005;-61
2022/07/30 04:41:16;;;;;;;;;;;14.50;99.90;;;;;;4965061;28;19918;-61
2022/07/30 04:43:42;;;;;;;;;;;14.50;99.90;;;;;;4962768;28;19913;-61
2022/07/30 04:46:07;;;;;;;;;;;14.70;99.90;;;;;;4964834;28;19924;-61
2022/07/30 04:48:33;;;;;;;;;;;14.50;99.90;;;;;;4953513;28;19912;-61
2022/07/30 04:51:00;;;;;;;;;;;14.60;99.90;;;;;;4966306;28;20290;-62
2022/07/30 04:53:27;;;;;;;;;;;14.70;99.90;;;;;;4964836;28;19984;-61
2022/07/30 04:55:53;;;;;;;;;;;14.80;99.90;;;;;;4960069;28;20021;-61
2022/07/30 04:58:19;;;;;;;;;;;14.90;99.90;;;;;;4947112;28;20350;-61
2022/07/30 05:00:45;;;;;;;;;;;14.90;99.90;;;;;;4963205;28;19971;-61
2022/07/30 05:03:12;;;;;;;;;;;15.00;99.90;;;;;;4971041;28;20276;-61
2022/07/30 05:05:38;;;;;;;;;;;15.20;99.90;;;;;;4973125;28;19965;-61
2022/07/30 05:08:04;;;;;;;;;;;15.30;99.90;;;;;;4972996;28;19941;-61
2022/07/30 05:10:30;;;;;;;;;;;15.40;99.90;;;;;;4954570;28;19957;-61
2022/07/30 05:12:55;;;;;;;;;;;15.50;99.90;;;;;;4972242;28;19906;-61
2022/07/30 05:15:21;;;;;;;;;;;15.60;99.90;;;;;;4955131;28;19992;-61
2022/07/30 05:17:46;;;;;;;;;;;15.70;99.90;;;;;;4972947;28;19993;-61
2022/07/30 05:20:13;;;;;;;;;;;15.70;99.90;;;;;;4970410;28;19906;-61
2022/07/30 05:22:38;;;;;;;;;;;15.80;99.90;;;;;;4955333;28;19969;-61
2022/07/30 05:25:04;;;;;;;;;;;15.90;99.90;;;;;;4967026;28;19913;-61
2022/07/30 05:27:29;;;;;;;;;;;16.00;99.90;;;;;;4959712;28;19910;-61
2022/07/30 05:29:55;;;;;;;;;;;16.10;99.90;;;;;;4964031;28;19917;-61
2022/07/30 05:32:21;;;;;;;;;;;16.20;99.90;;;;;;4962190;28;19907;-61
2022/07/30 05:34:47;;;;;;;;;;;16.20;99.90;;;;;;4969046;28;19952;-61
2022/07/30 05:37:12;;;;;;;;;;;16.30;99.90;;;;;;4961130;28;19949;-61
2022/07/30 05:39:38;;;;;;;;;;;16.40;99.90;;;;;;4963845;28;19910;-61
2022/07/30 05:42:03;;;;;;;;;;;16.40;99.90;;;;;;4961062;28;19910;-61
2022/07/30 05:44:29;;;;;;;;;;;16.50;99.90;;;;;;4961151;28;19910;-61
2022/07/30 05:46:54;;;;;;;;;;;16.50;99.90;;;;;;4964935;28;19910;-61
2022/07/30 05:49:20;;;;;;;;;;;16.60;99.90;;;;;;4963718;28;20150;-61
2022/07/30 05:51:45;;;;;;;;;;;16.70;99.90;;;;;;4964380;28;19906;-61
2022/07/30 05:54:11;;;;;;;;;;;16.70;99.90;;;;;;4960432;28;19910;-61
2022/07/30 05:56:36;;;;;;;;;;;16.80;99.90;;;;;;4942674;29;19911;-61
2022/07/30 05:59:02;;;;;;;;;;;16.90;99.90;;;;;;4964183;28;19906;-61
2022/07/30 06:01:28;;;;;;;;;;;16.90;99.90;;;;;;4943795;28;19921;-61
2022/07/30 06:03:53;;;;;;;;;;;17.00;99.90;;;;;;4963902;28;20026;-61
2022/07/30 06:06:19;;;;;;;;;;;17.10;99.90;;;;;;4961331;28;20334;-61
2022/07/30 06:08:44;;;;;;;;;;;17.20;99.90;;;;;;4963350;28;20031;-61
2022/07/30 06:11:10;;;;;;;;;;;17.20;99.90;;;;;;4961929;28;19906;-61
2022/07/30 06:13:37;;;;;;;;;;;17.30;99.90;;;;;;4946718;28;19906;-61
2022/07/30 06:16:02;;;;;;;;;;;17.40;99.90;;;;;;4946039;28;19911;-61
2022/07/30 06:18:28;;;;;;;;;;;17.50;99.90;;;;;;4946349;28;20004;-61
2022/07/30 06:20:54;;;;;;;;;;;17.50;99.90;;;;;;4967895;28;20374;-61
2022/07/30 06:23:20;;;;;;;;;;;17.60;99.90;;;;;;4962132;28;19941;-61
2022/07/30 06:25:46;;;;;;;;;;;17.50;99.90;;;;;;4960809;28;19910;-62
2022/07/30 06:28:13;;;;;;;;;;;17.60;99.90;;;;;;4962180;28;19911;-61
2022/07/30 06:30:39;;;;;;;;;;;17.70;99.90;;;;;;4945000;28;19910;-61
2022/07/30 06:33:05;;;;;;;;;;;17.70;99.90;;;;;;4960484;28;19964;-61
2022/07/30 06:35:30;;;;;;;;;;;17.80;99.90;;;;;;4944148;28;19906;-61
2022/07/30 06:37:56;;;;;;;;;;;17.80;99.90;;;;;;4962816;28;19913;-61
2022/07/30 06:40:21;;;;;;;;;;;17.90;99.90;;;;;;4961117;28;19997;-61
2022/07/30 06:42:47;;;;;;;;;;;17.90;99.90;;;;;;4962734;28;20305;-61
2022/07/30 06:45:13;;;;;;;;;;;18.00;99.90;;;;;;4961346;28;20377;-61
2022/07/30 06:47:38;;;;;;;;;;;18.10;99.90;;;;;;4963121;28;19907;-61
2022/07/30 06:50:04;;;;;;;;;;;18.20;99.90;;;;;;4944265;28;20282;-62
2022/07/30 06:52:30;;;;;;;;;;;18.30;99.90;;;;;;4959256;28;19918;-62
2022/07/30 06:54:55;;;;;;;;;;;18.50;99.90;;;;;;4951331;28;19922;-62
2022/07/30 06:57:21;;;;;;;;;;;18.60;99.90;;;;;;4961157;28;19906;-61
2022/07/30 06:59:46;;;;;;;;;;;18.70;99.90;;;;;;4959919;28;20282;-61
2022/07/30 07:02:12;;;;;;;;;;;18.70;99.90;;;;;;4963618;28;20278;-61
2022/07/30 07:04:37;;;;;;;;;;;18.70;99.90;;;;;;4962855;28;20374;-61
2022/07/30 07:07:03;;;;;;;;;;;18.60;99.90;;;;;;4942719;29;20340;-61
2022/07/30 07:09:28;;;;;;;;;;;18.60;99.90;;;;;;4962745;28;19906;-61
2022/07/30 07:11:54;;;;;;;;;;;18.60;99.90;;;;;;4960236;28;20543;-61
2022/07/30 07:14:19;;;;;;;;;;;18.70;99.90;;;;;;4958824;28;19973;-61
2022/07/30 07:16:46;;;;;;;;;;;18.90;99.90;;;;;;4962650;28;19969;-61
2022/07/30 07:19:12;;;;;;;;;;;19.10;99.90;;;;;;4962033;28;20370;-61
2022/07/30 07:21:37;;;;;;;;;;;19.20;99.90;;;;;;4952459;28;20220;-61
2022/07/30 07:24:04;;;;;;;;;;;19.30;99.90;;;;;;4936969;29;19918;-61
2022/07/30 07:26:30;;;;;;;;;;;19.30;99.90;;;;;;4960178;28;20367;-61
2022/07/30 07:28:55;;;;;;;;;;;19.40;99.90;;;;;;4963548;28;19910;-61
2022/07/30 07:31:21;;;;;;;;;;;19.30;99.90;;;;;;4962554;28;19910;-61
2022/07/30 07:33:47;;;;;;;;;;;19.50;99.90;;;;;;4963831;28;20012;-61
2022/07/30 07:36:13;;;;;;;;;;;19.50;99.90;;;;;;4963293;28;21609;-61
2022/07/30 07:38:38;;;;;;;;;;;19.60;99.90;;;;;;4946594;28;19956;-61
2022/07/30 07:41:04;;;;;;;;;;;19.40;99.90;;;;;;4946909;28;19972;-61
2022/07/30 07:43:30;;;;;;;;;;;19.30;99.90;;;;;;4943078;28;19922;-61
2022/07/30 07:45:56;;;;;;;;;;;19.30;99.90;;;;;;4956814;28;19914;-61
2022/07/30 07:48:21;;;;;;;;;;;19.20;99.90;;;;;;4957733;28;19976;-61
2022/07/30 07:50:47;;;;;;;;;;;19.30;99.90;;;;;;4948948;28;19907;-61
2022/07/30 07:53:12;;;;;;;;;;;19.40;99.90;;;;;;4954811;28;19910;-61
2022/07/30 07:55:38;;;;;;;;;;;19.60;99.90;;;;;;4955686;28;19922;-61
2022/07/30 07:58:04;;;;;;;;;;;19.70;99.90;;;;;;4955152;28;20347;-61
2022/07/30 08:00:30;;;;;;;;;;;19.70;99.90;;;;;;4953660;28;19906;-61
2022/07/30 08:02:56;;;;;;;;;;;19.90;99.90;;;;;;4956477;28;19921;-61
2022/07/30 08:05:22;;;;;;;;;;;20.00;99.90;;;;;;4950453;28;19917;-62
2022/07/30 08:07:47;;;;;;;;;;;20.00;99.90;;;;;;4953266;28;20297;-61
2022/07/30 08:10:14;;;;;;;;;;;20.10;99.90;;;;;;4957860;28;19906;-61
2022/07/30 08:12:41;;;;;;;;;;;20.00;99.90;;;;;;4960140;28;20278;-61
2022/07/30 08:15:08;;;;;;;;;;;20.00;99.90;;;;;;4965579;28;19917;-62
2022/07/30 08:17:38;;;;;;;;;;;20.20;99.90;;;;;;4965779;28;20334;-60
2022/07/30 08:20:04;;;;;;;;;;;20.00;99.90;;;;;;4968840;28;19921;-61
2022/07/30 08:22:29;;;;;;;;;;;20.00;99.90;;;;;;4946777;28;19914;-61
2022/07/30 08:24:55;;;;;;;;;;;20.00;99.90;;;;;;4958912;28;19922;-61
2022/07/30 08:27:20;;;;;;;;;;;20.30;99.90;;;;;;4959941;28;19953;-61
2022/07/30 08:29:46;;;;;;;;;;;20.60;99.90;;;;;;4961351;28;19906;-61
2022/07/30 08:32:12;;;;;;;;;;;20.80;99.90;;;;;;4964110;28;19910;-61
2022/07/30 08:34:37;;;;;;;;;;;20.80;99.90;;;;;;4962347;28;19914;-61
2022/07/30 08:37:03;;;;;;;;;;;21.40;99.90;;;;;;4958317;28;19993;-61
2022/07/30 08:39:29;;;;;;;;;;;21.40;99.90;;;;;;4957815;28;20009;-61
2022/07/30 08:41:55;;;;;;;;;;;21.50;99.90;;;;;;4957613;28;19914;-61
2022/07/30 08:44:20;;;;;;;;;;;21.40;99.90;;;;;;4969032;28;20372;-61
2022/07/30 08:46:46;;;;;;;;;;;21.40;99.90;;;;;;4962138;28;20366;-61
2022/07/30 08:49:13;;;;;;;;;;;21.80;99.90;;;;;;4960661;28;19997;-61
2022/07/30 08:51:38;;;;;;;;;;;22.00;99.90;;;;;;4960730;28;19950;-60
2022/07/30 08:54:05;;;;;;;;;;;22.20;99.90;;;;;;4940943;28;20583;-61
2022/07/30 08:56:31;;;;;;;;;;;22.60;99.90;;;;;;4959551;28;20350;-61
2022/07/30 08:58:56;;;;;;;;;;;22.10;99.90;;;;;;4960775;28;20029;-61
2022/07/30 09:01:22;;;;;;;;;;;22.10;99.90;;;;;;4964908;28;19996;-61
2022/07/30 09:03:48;;;;;;;;;;;22.60;99.90;;;;;;4953195;28;19917;-61
2022/07/30 09:06:14;;;;;;;;;;;22.50;99.90;;;;;;4946873;28;19961;-61
2022/07/30 09:08:39;;;;;;;;;;;22.80;99.90;;;;;;4962631;28;19961;-61
2022/07/30 09:11:05;;;;;;;;;;;23.10;99.90;;;;;;4939379;29;19907;-61
2022/07/30 09:13:34;;;;;;;;;;;23.40;99.90;;;;;;4944702;28;19906;-61
2022/07/30 09:16:01;;;;;;;;;;;23.40;99.90;;;;;;4960543;28;19993;-61
2022/07/30 09:18:28;;;;;;;;;;;23.90;99.90;;;;;;4960338;28;20283;-61
2022/07/30 09:20:53;;;;;;;;;;;23.90;99.90;;;;;;4967406;28;19910;-63
2022/07/30 09:23:19;;;;;;;;;;;23.70;99.90;;;;;;4962772;28;19924;-62
2022/07/30 09:25:46;;;;;;;;;;;23.70;99.90;;;;;;4959526;28;19914;-62
2022/07/30 09:28:12;;;;;;;;;;;24.10;99.90;;;;;;4973860;28;20179;-62
2022/07/30 09:30:47;;;;;;;;;;;24.10;99.90;;;;;;4963528;28;19920;-62
2022/07/30 09:33:13;;;;;;;;;;;24.20;99.90;;;;;;4965999;28;19914;-62
2022/07/30 09:35:39;;;;;;;;;;;24.20;99.90;;;;;;4962708;28;20053;-61
2022/07/30 09:38:05;;;;;;;;;;;24.70;99.90;;;;;;4945940;28;19912;-61
2022/07/30 09:40:30;;;;;;;;;;;25.20;99.90;;;;;;4965339;28;20432;-61
2022/07/30 09:43:03;;;;;;;;;;;25.20;99.90;;;;;;4970192;28;19953;-61
2022/07/30 09:45:29;;;;;;;;;;;25.20;99.40;;;;;;4961036;28;19911;-61
2022/07/30 09:47:54;;;;;;;;;;;25.00;98.10;;;;;;4962443;28;19912;-61
2022/07/30 09:50:20;;;;;;;;;;;25.00;99.10;;;;;;4969237;28;20001;-61
2022/07/30 09:52:48;;;;;;;;;;;25.20;98.40;;;;;;4971432;28;20380;-61
2022/07/30 09:55:14;;;;;;;;;;;25.10;97.70;;;;;;4969460;28;19917;-61
2022/07/30 09:57:56;;;;;;;;;;;24.90;97.90;;;;;;4963221;28;19906;-61
2022/07/30 10:00:23;;;;;;;;;;;25.30;96.20;;;;;;4959694;28;19907;-60
2022/07/30 10:02:50;;;;;;;;;;;25.00;96.20;;;;;;4963285;28;19960;-61
2022/07/30 10:05:18;;;;;;;;;;;25.50;96.00;;;;;;4958145;28;19908;-61
2022/07/30 10:07:53;;;;;;;;;;;25.80;95.70;;;;;;4961302;28;19921;-61
2022/07/30 10:10:23;;;;;;;;;;;26.00;93.50;;;;;;4959277;28;20010;-60
2022/07/30 10:12:50;;;;;;;;;;;25.90;93.30;;;;;;4963765;28;20005;-61
2022/07/30 10:15:18;;;;;;;;;;;26.30;92.40;;;;;;4967456;28;19977;-61
2022/07/30 10:17:44;;;;;;;;;;;26.30;92.20;;;;;;4969195;28;20469;-61
2022/07/30 10:20:10;;;;;;;;;;;26.30;92.10;;;;;;4970937;28;20421;-61
2022/07/30 10:22:37;;;;;;;;;;;26.20;92.80;;;;;;4973526;28;19922;-61
2022/07/30 10:25:03;;;;;;;;;;;26.10;92.00;;;;;;4973474;28;20364;-60
2022/07/30 10:27:29;;;;;;;;;;;26.00;92.20;;;;;;4953571;28;19945;-62
2022/07/30 10:29:55;;;;;;;;;;;26.10;91.60;;;;;;4973953;28;19906;-61
2022/07/30 10:32:20;;;;;;;;;;;26.40;92.40;;;;;;4974057;28;20155;-61
2022/07/30 10:34:46;;;;;;;;;;;26.90;91.70;;;;;;4974081;28;19909;-61
2022/07/30 10:37:14;;;;;;;;;;;27.40;90.90;;;;;;4952619;28;19910;-62
2022/07/30 10:39:46;;;;;;;;;;;27.70;90.30;;;;;;4968039;28;19906;-62
2022/07/30 10:42:20;;;;;;;;;;;27.40;89.60;;;;;;4966781;28;19937;-62
2022/07/30 10:44:48;;;;;;;;;;;27.20;88.80;;;;;;4958351;28;19914;-62
2022/07/30 10:47:17;;;;;;;;;;;27.10;89.40;;;;;;4963374;28;20126;-61
2022/07/30 10:50:03;;;;;;;;;;;27.50;89.40;;;;;;4966335;28;19980;-63
2022/07/30 10:52:44;;;;;;;;;;;28.30;86.00;;;;;;4941540;28;19914;-61
2022/07/30 10:55:13;;;;;;;;;;;28.30;83.90;;;;;;4971697;28;19918;-62
2022/07/30 10:57:58;;;;;;;;;;;27.40;86.30;;;;;;4970078;28;20259;-61
2022/07/30 11:00:24;;;;;;;;;;;27.10;87.10;;;;;;4973765;28;20715;-61
2022/07/30 11:03:28;;;;;;;;;;;27.80;86.30;;;;;;4973311;28;19910;-63
2022/07/30 11:06:13;;;;;;;;;;;27.80;86.20;;;;;;4888263;29;19912;-61
2022/07/30 11:08:39;;;;;;;;;;;28.10;84.40;;;;;;4883132;29;19908;-61
2022/07/30 11:11:20;;;;;;;;;;;27.90;85.80;;;;;;4885746;29;19912;-61
2022/07/30 11:13:51;;;;;;;;;;;27.80;84.70;;;;;;4885177;29;20384;-61
2022/07/30 11:16:37;;;;;;;;;;;26.90;86.40;;;;;;4871164;29;20434;-61
2022/07/30 11:19:03;;;;;;;;;;;26.30;88.70;;;;;;4872307;29;19918;-62
2022/07/30 11:21:28;;;;;;;;;;;26.80;88.50;;;;;;4870265;29;20038;-62
2022/07/30 11:23:54;;;;;;;;;;;27.30;87.00;;;;;;4885646;29;19994;-62
2022/07/30 11:26:38;;;;;;;;;;;27.60;86.50;;;;;;4869104;29;19915;-62
2022/07/30 11:29:04;;;;;;;;;;;28.00;83.70;;;;;;4885731;29;19955;-62
2022/07/30 11:31:36;;;;;;;;;;;28.70;81.30;;;;;;4884131;29;19944;-61
2022/07/30 11:34:19;;;;;;;;;;;27.40;82.60;;;;;;4885181;29;20047;-61
2022/07/30 11:37:04;;;;;;;;;;;26.70;86.50;;;;;;4930345;28;19952;-61
2022/07/30 11:39:48;;;;;;;;;;;27.60;85.00;;;;;;4970747;28;20440;-62
2022/07/30 11:42:23;;;;;;;;;;;28.00;83.80;;;;;;4970454;28;19913;-62
2022/07/30 11:44:49;;;;;;;;;;;27.30;86.00;;;;;;4969413;28;19906;-62
2022/07/30 11:47:14;;;;;;;;;;;26.70;85.70;;;;;;4972885;28;19917;-61
2022/07/30 11:49:40;;;;;;;;;;;26.30;88.20;;;;;;4972317;28;19906;-61
2022/07/30 11:52:07;;;;;;;;;;;26.30;88.20;;;;;;4972980;28;20056;-61
2022/07/30 11:54:32;;;;;;;;;;;26.40;87.00;;;;;;4962891;28;19914;-62
2022/07/30 11:56:58;;;;;;;;;;;26.30;87.80;;;;;;4956119;28;19914;-62
2022/07/30 11:59:24;;;;;;;;;;;26.70;88.20;;;;;;4945866;28;20008;-62
2022/07/30 12:01:51;;;;;;;;;;;27.80;84.30;;;;;;4970359;28;19913;-62
2022/07/30 12:04:16;;;;;;;;;;;27.60;85.30;;;;;;4966097;28;19906;-62
2022/07/30 12:06:43;;;;;;;;;;;28.50;82.80;;;;;;4949970;28;20004;-62
2022/07/30 12:09:09;;;;;;;;;;;29.00;80.80;;;;;;4956237;28;19920;-62
2022/07/30 12:11:35;;;;;;;;;;;28.10;80.60;;;;;;4951039;28;19906;-62
2022/07/30 12:14:01;;;;;;;;;;;27.50;81.90;;;;;;4970916;28;19906;-62
2022/07/30 12:16:28;;;;;;;;;;;28.00;81.30;;;;;;4971767;28;19914;-62
2022/07/30 12:18:54;;;;;;;;;;;28.70;79.90;;;;;;4960571;28;20382;-63
2022/07/30 12:21:20;;;;;;;;;;;29.00;78.40;;;;;;4952676;28;19989;-62
2022/07/30 12:23:56;;;;;;;;;;;29.80;78.20;;;;;;4949800;28;20468;-62
2022/07/30 12:26:23;;;;;;;;;;;29.40;77.10;;;;;;4969205;28;19914;-62
2022/07/30 12:28:49;;;;;;;;;;;30.30;74.60;;;;;;4968826;28;20010;-62
2022/07/30 12:31:15;;;;;;;;;;;31.20;71.60;;;;;;4968199;28;19993;-62
2022/07/30 12:33:41;;;;;;;;;;;31.60;71.30;;;;;;4949851;28;20019;-62
2022/07/30 12:36:06;;;;;;;;;;;31.20;70.00;;;;;;4950391;28;19914;-62
2022/07/30 12:38:42;;;;;;;;;;;31.50;69.00;;;;;;4968412;28;19913;-62
2022/07/30 12:41:07;;;;;;;;;;;31.30;68.70;;;;;;4968067;28;19945;-62
2022/07/30 12:43:45;;;;;;;;;;;31.00;67.80;;;;;;4961285;28;19953;-62
2022/07/30 12:46:11;;;;;;;;;;;31.40;68.20;;;;;;4960357;28;19910;-62
2022/07/30 12:48:38;;;;;;;;;;;32.00;66.30;;;;;;4962761;28;19910;-62
2022/07/30 12:51:07;;;;;;;;;;;30.90;67.90;;;;;;4960656;28;19920;-62
2022/07/30 12:53:33;;;;;;;;;;;29.90;69.70;;;;;;4958739;28;19953;-62
2022/07/30 12:56:11;;;;;;;;;;;29.90;69.10;;;;;;4961619;28;20257;-62
2022/07/30 12:58:37;;;;;;;;;;;30.00;69.00;;;;;;4961648;28;19907;-62
2022/07/30 13:01:03;;;;;;;;;;;30.70;67.10;;;;;;4962766;28;20009;-62
2022/07/30 13:03:37;;;;;;;;;;;30.00;65.20;;;;;;4964538;28;19960;-62
2022/07/30 13:06:10;;;;;;;;;;;31.20;65.30;;;;;;4966476;28;19921;-62
2022/07/30 13:08:54;;;;;;;;;;;31.20;64.50;;;;;;4962752;28;19914;-62
2022/07/30 13:11:21;;;;;;;;;;;32.60;62.40;;;;;;4964746;28;19910;-62
2022/07/30 13:13:47;;;;;;;;;;;32.70;60.60;;;;;;4966571;28;20702;-62
2022/07/30 13:16:13;;;;;;;;;;;33.20;60.90;;;;;;4965408;28;19913;-62
2022/07/30 13:18:39;;;;;;;;;;;31.90;60.10;;;;;;4964442;28;20294;-62
2022/07/30 13:21:07;;;;;;;;;;;31.90;62.40;;;;;;4970954;28;20000;-62
2022/07/30 13:23:34;;;;;;;;;;;32.60;61.40;;;;;;4961952;28;19970;-62
2022/07/30 13:25:59;;;;;;;;;;;33.00;60.70;;;;;;4967026;28;19921;-62
2022/07/30 13:28:25;;;;;;;;;;;33.60;60.30;;;;;;4969715;28;19906;-62
2022/07/30 13:30:51;;;;;;;;;;;33.30;60.10;;;;;;4961994;28;19907;-61
2022/07/30 13:33:16;;;;;;;;;;;33.20;59.70;;;;;;4964208;28;20254;-62
2022/07/30 13:35:42;;;;;;;;;;;34.10;58.90;;;;;;4963958;28;19914;-62
2022/07/30 13:38:09;;;;;;;;;;;34.40;57.10;;;;;;4964276;28;19937;-62
2022/07/30 13:40:35;;;;;;;;;;;34.50;56.90;;;;;;4963814;28;19949;-62
2022/07/30 13:43:01;;;;;;;;;;;34.40;56.60;;;;;;4946718;28;19933;-61
2022/07/30 13:45:27;;;;;;;;;;;33.20;56.80;;;;;;4963933;28;19913;-62
2022/07/30 13:47:53;;;;;;;;;;;32.40;58.20;;;;;;4965388;28;19961;-62
2022/07/30 13:50:18;;;;;;;;;;;32.70;58.60;;;;;;4965904;28;19960;-61
2022/07/30 13:52:44;;;;;;;;;;;32.70;58.20;;;;;;4961673;28;19914;-62
2022/07/30 13:55:09;;;;;;;;;;;32.60;58.40;;;;;;4964771;28;20001;-62
2022/07/30 13:57:35;;;;;;;;;;;33.40;58.30;;;;;;4963598;28;20005;-62
2022/07/30 14:00:01;;;;;;;;;;;32.20;59.30;;;;;;4965225;28;19948;-61
2022/07/30 14:02:26;;;;;;;;;;;31.60;59.40;;;;;;4945526;28;20385;-61
2022/07/30 14:04:52;;;;;;;;;;;31.30;60.30;;;;;;4964700;28;20397;-62
2022/07/30 14:07:17;;;;;;;;;;;32.50;59.30;;;;;;4962221;28;19937;-62
2022/07/30 14:09:43;;;;;;;;;;;32.00;58.00;;;;;;4965106;28;19906;-62
2022/07/30 14:12:08;;;;;;;;;;;31.10;58.70;;;;;;4960942;28;19913;-61
2022/07/30 14:14:34;;;;;;;;;;;30.80;58.50;;;;;;4962254;28;19913;-62
2022/07/30 14:17:00;;;;;;;;;;;31.50;58.50;;;;;;4963859;28;19916;-62
2022/07/30 14:19:25;;;;;;;;;;;32.10;57.20;;;;;;4964706;28;19946;-62
2022/07/30 14:21:51;;;;;;;;;;;32.20;56.00;;;;;;4984142;28;19910;-61